Cove, Oregon
Current Conditions -  °F | °C
As of 8:35 PM on Saturday 22 Nov 2014 (Local Time) from KLGD Reporting Station
Clear Clear  
Wind Chill: 30°   Ceiling: Unl
Heat Index: 37°   Visibility: 10mi
Dew Point: 27°   Wind: 10mph
Humidity: 65%   Direction: 300°WNW
Pressure: 30"   Gusts: NA
Location:  45.3°N, 117.81°W
Report Text: KLGD 230435Z AUTO 30009KT 10SM CLR 03/M03 A3000 RMK AO1
Loading
Personal Weather Stations






























Interactive Weather Map New forecast layout! Learn more

10-Day Weather Forecast

Advertisements
Track Severe Weather on mobile